sensor_id;sensor_type;location;lat;lon;timestamp;temperature;humidity
11093;DHT22;5600;50.864;6.102;2023-04-09T00:02:41;8.30;99.90
11093;DHT22;5600;50.864;6.102;2023-04-09T00:05:42;8.20;99.90
11093;DHT22;5600;50.864;6.102;2023-04-09T00:08:43;8.00;99.90
11093;DHT22;5600;50.864;6.102;2023-04-09T00:11:43;7.80;99.90
11093;DHT22;5600;50.864;6.102;2023-04-09T00:14:44;7.70;99.90
11093;DHT22;5600;50.864;6.102;2023-04-09T00:17:44;7.50;99.90
11093;DHT22;5600;50.864;6.102;2023-04-09T00:20:45;7.30;99.90
11093;DHT22;5600;50.864;6.102;2023-04-09T00:23:46;7.30;99.90
11093;DHT22;5600;50.864;6.102;2023-04-09T00:26:46;7.20;99.90
11093;DHT22;5600;50.864;6.102;2023-04-09T00:29:48;7.10;99.90
11093;DHT22;5600;50.864;6.102;2023-04-09T00:32:49;7.00;99.90
11093;DHT22;5600;50.864;6.102;2023-04-09T00:35:50;7.00;99.90
11093;DHT22;5600;50.864;6.102;2023-04-09T00:38:50;7.00;99.90
11093;DHT22;5600;50.864;6.102;2023-04-09T00:41:57;7.00;99.90
11093;DHT22;5600;50.864;6.102;2023-04-09T00:44:59;7.00;99.90
11093;DHT22;5600;50.864;6.102;2023-04-09T00:48:00;6.90;99.90
11093;DHT22;5600;50.864;6.102;2023-04-09T00:51:01;6.90;99.90
11093;DHT22;5600;50.864;6.102;2023-04-09T00:54:02;6.90;99.90
11093;DHT22;5600;50.864;6.102;2023-04-09T00:57:02;6.90;99.90
11093;DHT22;5600;50.864;6.102;2023-04-09T01:00:04;6.80;99.90
11093;DHT22;5600;50.864;6.102;2023-04-09T01:03:06;6.80;99.90
11093;DHT22;5600;50.864;6.102;2023-04-09T01:09:32;6.80;99.90
11093;DHT22;5600;50.864;6.102;2023-04-09T01:15:59;6.70;99.90
11093;DHT22;5600;50.864;6.102;2023-04-09T01:19:09;6.60;99.90
11093;DHT22;5600;50.864;6.102;2023-04-09T01:28:48;6.60;99.90
11093;DHT22;5600;50.864;6.102;2023-04-09T01:31:53;6.50;99.90
11093;DHT22;5600;50.864;6.102;2023-04-09T01:34:55;6.40;99.90
11093;DHT22;5600;50.864;6.102;2023-04-09T01:37:56;6.30;99.90
11093;DHT22;5600;50.864;6.102;2023-04-09T01:40:59;6.30;99.90
11093;DHT22;5600;50.864;6.102;2023-04-09T01:44:02;6.20;99.90
11093;DHT22;5600;50.864;6.102;2023-04-09T01:47:04;4.50;99.90
11093;DHT22;5600;50.864;6.102;2023-04-09T01:50:05;6.00;99.90
11093;DHT22;5600;50.864;6.102;2023-04-09T01:53:06;5.90;99.90
11093;DHT22;5600;50.864;6.102;2023-04-09T01:56:08;5.70;99.90
11093;DHT22;5600;50.864;6.102;2023-04-09T01:59:09;5.70;99.90
11093;DHT22;5600;50.864;6.102;2023-04-09T02:02:16;5.60;99.90
11093;DHT22;5600;50.864;6.102;2023-04-09T02:05:19;5.50;99.90
11093;DHT22;5600;50.864;6.102;2023-04-09T02:08:23;5.50;99.90
11093;DHT22;5600;50.864;6.102;2023-04-09T02:11:25;5.40;99.90
11093;DHT22;5600;50.864;6.102;2023-04-09T02:14:30;5.30;99.90
11093;DHT22;5600;50.864;6.102;2023-04-09T02:17:31;5.20;99.90
11093;DHT22;5600;50.864;6.102;2023-04-09T02:20:32;5.10;99.90
11093;DHT22;5600;50.864;6.102;2023-04-09T02:23:33;5.10;99.90
11093;DHT22;5600;50.864;6.102;2023-04-09T02:26:34;5.00;99.90
11093;DHT22;5600;50.864;6.102;2023-04-09T02:29:35;5.00;99.90
11093;DHT22;5600;50.864;6.102;2023-04-09T02:32:35;5.00;99.90
11093;DHT22;5600;50.864;6.102;2023-04-09T02:35:36;4.90;99.90
11093;DHT22;5600;50.864;6.102;2023-04-09T02:38:39;4.90;99.90
11093;DHT22;5600;50.864;6.102;2023-04-09T02:41:39;3.30;99.90
11093;DHT22;5600;50.864;6.102;2023-04-09T02:44:40;4.70;99.90
11093;DHT22;5600;50.864;6.102;2023-04-09T02:47:41;4.70;99.90
11093;DHT22;5600;50.864;6.102;2023-04-09T02:50:41;4.70;99.90
11093;DHT22;5600;50.864;6.102;2023-04-09T02:53:42;4.70;99.90
11093;DHT22;5600;50.864;6.102;2023-04-09T02:56:44;4.60;99.90
11093;DHT22;5600;50.864;6.102;2023-04-09T02:59:45;4.60;99.90
11093;DHT22;5600;50.864;6.102;2023-04-09T03:02:46;4.60;99.90
11093;DHT22;5600;50.864;6.102;2023-04-09T03:05:47;4.60;99.90
11093;DHT22;5600;50.864;6.102;2023-04-09T03:08:47;4.50;99.90
11093;DHT22;5600;50.864;6.102;2023-04-09T03:11:48;4.50;99.90
11093;DHT22;5600;50.864;6.102;2023-04-09T03:14:49;4.50;99.90
11093;DHT22;5600;50.864;6.102;2023-04-09T03:17:49;4.60;99.90
11093;DHT22;5600;50.864;6.102;2023-04-09T03:20:50;4.60;99.90
11093;DHT22;5600;50.864;6.102;2023-04-09T03:23:51;4.60;99.90
11093;DHT22;5600;50.864;6.102;2023-04-09T03:26:51;4.60;99.90
11093;DHT22;5600;50.864;6.102;2023-04-09T03:29:55;4.60;99.90
11093;DHT22;5600;50.864;6.102;2023-04-09T03:32:58;4.70;99.90
11093;DHT22;5600;50.864;6.102;2023-04-09T03:35:59;4.70;99.90
11093;DHT22;5600;50.864;6.102;2023-04-09T03:39:21;4.70;99.90
11093;DHT22;5600;50.864;6.102;2023-04-09T03:42:22;4.70;99.90
11093;DHT22;5600;50.864;6.102;2023-04-09T03:45:23;4.70;99.90
11093;DHT22;5600;50.864;6.102;2023-04-09T03:48:26;4.70;99.90
11093;DHT22;5600;50.864;6.102;2023-04-09T03:51:28;4.70;99.90
11093;DHT22;5600;50.864;6.102;2023-04-09T03:54:32;4.60;99.90
11093;DHT22;5600;50.864;6.102;2023-04-09T03:57:34;4.60;99.90
11093;DHT22;5600;50.864;6.102;2023-04-09T04:00:35;4.60;99.90
11093;DHT22;5600;50.864;6.102;2023-04-09T04:03:57;4.50;99.90
11093;DHT22;5600;50.864;6.102;2023-04-09T04:07:02;4.50;99.90
11093;DHT22;5600;50.864;6.102;2023-04-09T04:10:14;4.50;99.90
11093;DHT22;5600;50.864;6.102;2023-04-09T04:13:18;4.50;99.90
11093;DHT22;5600;50.864;6.102;2023-04-09T04:16:25;4.50;99.90
11093;DHT22;5600;50.864;6.102;2023-04-09T04:19:27;4.50;99.90
11093;DHT22;5600;50.864;6.102;2023-04-09T04:22:29;4.40;99.90
11093;DHT22;5600;50.864;6.102;2023-04-09T04:25:33;4.50;99.90
11093;DHT22;5600;50.864;6.102;2023-04-09T04:28:38;4.40;99.90
11093;DHT22;5600;50.864;6.102;2023-04-09T04:31:40;4.40;99.90
11093;DHT22;5600;50.864;6.102;2023-04-09T04:34:41;4.40;99.90
11093;DHT22;5600;50.864;6.102;2023-04-09T04:37:53;4.50;99.90
11093;DHT22;5600;50.864;6.102;2023-04-09T04:40:55;4.50;99.90
11093;DHT22;5600;50.864;6.102;2023-04-09T04:43:57;4.50;99.90
11093;DHT22;5600;50.864;6.102;2023-04-09T04:46:59;4.50;99.90
11093;DHT22;5600;50.864;6.102;2023-04-09T04:50:00;4.40;99.90
11093;DHT22;5600;50.864;6.102;2023-04-09T04:53:01;4.30;99.90
11093;DHT22;5600;50.864;6.102;2023-04-09T04:56:14;4.30;99.90
11093;DHT22;5600;50.864;6.102;2023-04-09T04:59:23;4.30;99.90
11093;DHT22;5600;50.864;6.102;2023-04-09T05:02:32;4.20;99.90
11093;DHT22;5600;50.864;6.102;2023-04-09T05:05:49;4.30;99.90
11093;DHT22;5600;50.864;6.102;2023-04-09T05:08:51;4.30;99.90
11093;DHT22;5600;50.864;6.102;2023-04-09T05:11:51;4.40;99.90
11093;DHT22;5600;50.864;6.102;2023-04-09T05:14:54;4.50;99.90
11093;DHT22;5600;50.864;6.102;2023-04-09T05:17:55;4.40;99.90
11093;DHT22;5600;50.864;6.102;2023-04-09T05:20:57;4.40;99.90
11093;DHT22;5600;50.864;6.102;2023-04-09T05:24:02;3.40;99.90
11093;DHT22;5600;50.864;6.102;2023-04-09T05:27:06;4.30;99.90
11093;DHT22;5600;50.864;6.102;2023-04-09T05:30:07;4.30;99.90
11093;DHT22;5600;50.864;6.102;2023-04-09T05:33:08;4.30;99.90
11093;DHT22;5600;50.864;6.102;2023-04-09T05:36:14;4.20;99.90
11093;DHT22;5600;50.864;6.102;2023-04-09T05:39:16;4.20;99.90
11093;DHT22;5600;50.864;6.102;2023-04-09T05:42:18;4.30;99.90
11093;DHT22;5600;50.864;6.102;2023-04-09T05:45:30;4.50;99.90
11093;DHT22;5600;50.864;6.102;2023-04-09T05:48:34;4.60;99.90
11093;DHT22;5600;50.864;6.102;2023-04-09T05:51:35;4.80;99.90
11093;DHT22;5600;50.864;6.102;2023-04-09T05:54:38;4.90;99.90
11093;DHT22;5600;50.864;6.102;2023-04-09T05:57:41;4.90;99.90
11093;DHT22;5600;50.864;6.102;2023-04-09T06:00:44;5.00;99.90
11093;DHT22;5600;50.864;6.102;2023-04-09T06:03:44;5.00;99.90
11093;DHT22;5600;50.864;6.102;2023-04-09T06:06:45;5.10;99.90
11093;DHT22;5600;50.864;6.102;2023-04-09T06:09:46;5.10;99.90
11093;DHT22;5600;50.864;6.102;2023-04-09T06:12:47;7.20;99.90
11093;DHT22;5600;50.864;6.102;2023-04-09T06:15:48;5.30;99.90
11093;DHT22;5600;50.864;6.102;2023-04-09T06:18:49;5.40;99.90
11093;DHT22;5600;50.864;6.102;2023-04-09T06:21:53;5.50;99.90
11093;DHT22;5600;50.864;6.102;2023-04-09T06:24:54;5.60;99.90
11093;DHT22;5600;50.864;6.102;2023-04-09T06:27:54;5.70;99.90
11093;DHT22;5600;50.864;6.102;2023-04-09T06:30:56;5.80;99.90
11093;DHT22;5600;50.864;6.102;2023-04-09T06:33:57;5.90;99.90
11093;DHT22;5600;50.864;6.102;2023-04-09T06:36:58;6.00;99.90
11093;DHT22;5600;50.864;6.102;2023-04-09T06:39:58;6.00;99.90
11093;DHT22;5600;50.864;6.102;2023-04-09T06:42:59;6.10;99.90
11093;DHT22;5600;50.864;6.102;2023-04-09T06:46:11;6.30;99.90
11093;DHT22;5600;50.864;6.102;2023-04-09T06:49:12;6.30;99.90
11093;DHT22;5600;50.864;6.102;2023-04-09T06:52:13;6.50;99.90
11093;DHT22;5600;50.864;6.102;2023-04-09T06:55:14;6.60;99.90
11093;DHT22;5600;50.864;6.102;2023-04-09T06:58:14;6.80;99.90
11093;DHT22;5600;50.864;6.102;2023-04-09T07:01:15;7.00;99.90
11093;DHT22;5600;50.864;6.102;2023-04-09T07:04:17;7.20;99.90
11093;DHT22;5600;50.864;6.102;2023-04-09T07:07:17;7.50;99.90
11093;DHT22;5600;50.864;6.102;2023-04-09T07:10:20;7.80;99.90
11093;DHT22;5600;50.864;6.102;2023-04-09T07:13:21;8.10;99.90
11093;DHT22;5600;50.864;6.102;2023-04-09T07:16:21;8.30;99.90
11093;DHT22;5600;50.864;6.102;2023-04-09T07:19:22;8.40;99.90
11093;DHT22;5600;50.864;6.102;2023-04-09T07:22:25;8.50;99.90
11093;DHT22;5600;50.864;6.102;2023-04-09T07:25:26;8.50;99.90
11093;DHT22;5600;50.864;6.102;2023-04-09T07:28:27;8.60;99.90
11093;DHT22;5600;50.864;6.102;2023-04-09T07:31:28;8.90;99.90
11093;DHT22;5600;50.864;6.102;2023-04-09T07:34:29;9.30;99.90
11093;DHT22;5600;50.864;6.102;2023-04-09T07:37:29;9.80;99.90
11093;DHT22;5600;50.864;6.102;2023-04-09T07:40:30;10.30;99.90
11093;DHT22;5600;50.864;6.102;2023-04-09T07:43:33;11.00;99.90
11093;DHT22;5600;50.864;6.102;2023-04-09T07:46:34;11.70;99.90
11093;DHT22;5600;50.864;6.102;2023-04-09T07:49:35;12.30;99.90
11093;DHT22;5600;50.864;6.102;2023-04-09T07:52:37;13.00;99.90
11093;DHT22;5600;50.864;6.102;2023-04-09T07:55:39;13.40;99.90
11093;DHT22;5600;50.864;6.102;2023-04-09T07:58:39;13.50;99.90
11093;DHT22;5600;50.864;6.102;2023-04-09T08:01:40;12.40;99.90
11093;DHT22;5600;50.864;6.102;2023-04-09T08:04:41;13.60;99.90
11093;DHT22;5600;50.864;6.102;2023-04-09T08:07:42;13.40;99.90
11093;DHT22;5600;50.864;6.102;2023-04-09T08:10:42;13.30;99.90
11093;DHT22;5600;50.864;6.102;2023-04-09T08:13:43;13.30;99.90
11093;DHT22;5600;50.864;6.102;2023-04-09T08:16:45;13.50;99.90
11093;DHT22;5600;50.864;6.102;2023-04-09T08:19:46;13.70;99.90
11093;DHT22;5600;50.864;6.102;2023-04-09T08:22:48;14.10;99.90
11093;DHT22;5600;50.864;6.102;2023-04-09T08:25:49;14.70;99.90
11093;DHT22;5600;50.864;6.102;2023-04-09T08:28:50;15.20;99.90
11093;DHT22;5600;50.864;6.102;2023-04-09T08:31:51;16.00;99.90
11093;DHT22;5600;50.864;6.102;2023-04-09T08:34:51;16.00;99.90
11093;DHT22;5600;50.864;6.102;2023-04-09T08:37:53;16.10;99.90
11093;DHT22;5600;50.864;6.102;2023-04-09T08:40:54;16.00;99.90
11093;DHT22;5600;50.864;6.102;2023-04-09T08:43:55;16.10;99.90
11093;DHT22;5600;50.864;6.102;2023-04-09T08:46:56;16.00;99.90
11093;DHT22;5600;50.864;6.102;2023-04-09T08:49:58;16.00;99.90
11093;DHT22;5600;50.864;6.102;2023-04-09T08:53:02;16.30;99.90
11093;DHT22;5600;50.864;6.102;2023-04-09T08:56:03;16.30;99.90
11093;DHT22;5600;50.864;6.102;2023-04-09T09:02:11;16.50;99.90
11093;DHT22;5600;50.864;6.102;2023-04-09T09:05:11;16.40;99.90
11093;DHT22;5600;50.864;6.102;2023-04-09T09:08:21;16.10;99.90
11093;DHT22;5600;50.864;6.102;2023-04-09T09:11:26;16.10;99.90
11093;DHT22;5600;50.864;6.102;2023-04-09T09:14:31;13.40;99.90
11093;DHT22;5600;50.864;6.102;2023-04-09T09:17:33;16.20;99.90
11093;DHT22;5600;50.864;6.102;2023-04-09T09:20:52;16.50;99.90
11093;DHT22;5600;50.864;6.102;2023-04-09T09:24:18;16.50;99.90
11093;DHT22;5600;50.864;6.102;2023-04-09T09:27:36;16.50;99.90
11093;DHT22;5600;50.864;6.102;2023-04-09T09:30:39;17.00;99.90
11093;DHT22;5600;50.864;6.102;2023-04-09T09:33:40;17.20;99.90
11093;DHT22;5600;50.864;6.102;2023-04-09T09:36:43;17.60;99.90
11093;DHT22;5600;50.864;6.102;2023-04-09T09:42:54;18.30;99.90
11093;DHT22;5600;50.864;6.102;2023-04-09T09:45:56;18.40;99.90
11093;DHT22;5600;50.864;6.102;2023-04-09T09:48:57;18.00;99.90
11093;DHT22;5600;50.864;6.102;2023-04-09T09:51:59;17.80;99.90
11093;DHT22;5600;50.864;6.102;2023-04-09T09:55:04;17.90;98.30
11093;DHT22;5600;50.864;6.102;2023-04-09T09:58:16;17.90;98.80
11093;DHT22;5600;50.864;6.102;2023-04-09T10:01:19;18.20;98.80
11093;DHT22;5600;50.864;6.102;2023-04-09T10:04:22;18.70;97.00
11093;DHT22;5600;50.864;6.102;2023-04-09T10:07:23;18.60;97.50
11093;DHT22;5600;50.864;6.102;2023-04-09T10:10:24;18.20;97.80
11093;DHT22;5600;50.864;6.102;2023-04-09T10:13:34;17.70;98.70
11093;DHT22;5600;50.864;6.102;2023-04-09T10:19:44;17.50;98.70
11093;DHT22;5600;50.864;6.102;2023-04-09T10:22:48;17.70;98.00
11093;DHT22;5600;50.864;6.102;2023-04-09T10:25:49;18.00;97.90
11093;DHT22;5600;50.864;6.102;2023-04-09T10:29:11;18.00;97.80
11093;DHT22;5600;50.864;6.102;2023-04-09T10:32:21;18.10;98.00
11093;DHT22;5600;50.864;6.102;2023-04-09T10:35:26;18.20;97.30
11093;DHT22;5600;50.864;6.102;2023-04-09T10:41:35;17.90;96.70
11093;DHT22;5600;50.864;6.102;2023-04-09T10:44:38;17.70;96.50
11093;DHT22;5600;50.864;6.102;2023-04-09T10:47:42;17.20;97.80
11093;DHT22;5600;50.864;6.102;2023-04-09T11:06:14;17.80;98.30
11093;DHT22;5600;50.864;6.102;2023-04-09T11:15:20;18.10;97.20
11093;DHT22;5600;50.864;6.102;2023-04-09T11:18:28;17.80;97.20
11093;DHT22;5600;50.864;6.102;2023-04-09T11:24:44;18.20;97.20
11093;DHT22;5600;50.864;6.102;2023-04-09T11:30:49;18.40;97.50
11093;DHT22;5600;50.864;6.102;2023-04-09T11:33:50;18.30;96.90
11093;DHT22;5600;50.864;6.102;2023-04-09T11:36:51;18.30;96.30
11093;DHT22;5600;50.864;6.102;2023-04-09T11:39:53;18.70;95.60
11093;DHT22;5600;50.864;6.102;2023-04-09T11:42:54;18.70;96.00
11093;DHT22;5600;50.864;6.102;2023-04-09T11:51:58;19.20;93.90
11093;DHT22;5600;50.864;6.102;2023-04-09T11:55:02;19.30;93.80
11093;DHT22;5600;50.864;6.102;2023-04-09T12:10:10;19.70;95.50
11093;DHT22;5600;50.864;6.102;2023-04-09T12:40:22;19.50;94.70
11093;DHT22;5600;50.864;6.102;2023-04-09T12:43:22;20.00;93.10
11093;DHT22;5600;50.864;6.102;2023-04-09T12:58:28;19.30;92.80
11093;DHT22;5600;50.864;6.102;2023-04-09T13:22:37;19.30;93.20
11093;DHT22;5600;50.864;6.102;2023-04-09T13:34:41;19.70;93.30
11093;DHT22;5600;50.864;6.102;2023-04-09T13:37:42;20.00;93.10
11093;DHT22;5600;50.864;6.102;2023-04-09T13:40:43;19.60;93.70
11093;DHT22;5600;50.864;6.102;2023-04-09T13:46:45;19.30;93.50
11093;DHT22;5600;50.864;6.102;2023-04-09T13:52:46;19.30;94.10
11093;DHT22;5600;50.864;6.102;2023-04-09T13:55:47;20.10;93.10
11093;DHT22;5600;50.864;6.102;2023-04-09T14:10:53;24.40;86.90
11093;DHT22;5600;50.864;6.102;2023-04-09T14:13:54;23.00;87.90
11093;DHT22;5600;50.864;6.102;2023-04-09T14:19:56;23.40;88.00
11093;DHT22;5600;50.864;6.102;2023-04-09T14:26:00;23.40;87.20
11093;DHT22;5600;50.864;6.102;2023-04-09T14:29:01;23.10;87.60
11093;DHT22;5600;50.864;6.102;2023-04-09T14:32:03;22.70;86.40
11093;DHT22;5600;50.864;6.102;2023-04-09T14:35:04;22.20;87.20
11093;DHT22;5600;50.864;6.102;2023-04-09T14:38:05;22.10;88.60
11093;DHT22;5600;50.864;6.102;2023-04-09T14:41:06;22.50;89.00
11093;DHT22;5600;50.864;6.102;2023-04-09T14:44:06;21.90;89.00
11093;DHT22;5600;50.864;6.102;2023-04-09T14:50:08;22.10;90.80
11093;DHT22;5600;50.864;6.102;2023-04-09T14:56:12;21.60;90.60
11093;DHT22;5600;50.864;6.102;2023-04-09T14:59:12;20.40;90.60
11093;DHT22;5600;50.864;6.102;2023-04-09T15:02:13;19.40;91.00
11093;DHT22;5600;50.864;6.102;2023-04-09T15:05:13;18.80;91.80
11093;DHT22;5600;50.864;6.102;2023-04-09T15:08:14;18.40;92.90
11093;DHT22;5600;50.864;6.102;2023-04-09T15:11:16;18.80;92.60
11093;DHT22;5600;50.864;6.102;2023-04-09T15:20:21;19.50;91.60
11093;DHT22;5600;50.864;6.102;2023-04-09T15:23:21;19.10;92.50
11093;DHT22;5600;50.864;6.102;2023-04-09T15:26:22;18.80;92.40
11093;DHT22;5600;50.864;6.102;2023-04-09T15:29:22;18.30;92.50
11093;DHT22;5600;50.864;6.102;2023-04-09T15:32:23;18.20;93.00
11093;DHT22;5600;50.864;6.102;2023-04-09T15:47:34;18.50;93.10
11093;DHT22;5600;50.864;6.102;2023-04-09T15:53:36;18.80;92.70
11093;DHT22;5600;50.864;6.102;2023-04-09T16:14:46;18.50;92.90
11093;DHT22;5600;50.864;6.102;2023-04-09T16:17:46;18.60;92.80
11093;DHT22;5600;50.864;6.102;2023-04-09T16:20:51;18.60;92.40
11093;DHT22;5600;50.864;6.102;2023-04-09T16:23:52;18.40;92.60
11093;DHT22;5600;50.864;6.102;2023-04-09T16:41:58;17.20;93.70
11093;DHT22;5600;50.864;6.102;2023-04-09T16:51:10;17.00;94.50
11093;DHT22;5600;50.864;6.102;2023-04-09T16:54:10;17.00;94.60
11093;DHT22;5600;50.864;6.102;2023-04-09T16:57:11;17.10;94.20
11093;DHT22;5600;50.864;6.102;2023-04-09T17:09:18;17.10;94.30
11093;DHT22;5600;50.864;6.102;2023-04-09T17:15:20;16.90;94.10
11093;DHT22;5600;50.864;6.102;2023-04-09T17:48:37;14.30;98.00
11093;DHT22;5600;50.864;6.102;2023-04-09T17:54:39;14.10;98.50
11093;DHT22;5600;50.864;6.102;2023-04-09T18:18:53;13.10;99.90
11093;DHT22;5600;50.864;6.102;2023-04-09T18:27:57;12.80;99.90
11093;DHT22;5600;50.864;6.102;2023-04-09T18:33:58;12.50;99.90
11093;DHT22;5600;50.864;6.102;2023-04-09T18:55:10;11.60;99.90
11093;DHT22;5600;50.864;6.102;2023-04-09T18:58:11;11.50;99.90
11093;DHT22;5600;50.864;6.102;2023-04-09T19:07:20;11.10;99.90
11093;DHT22;5600;50.864;6.102;2023-04-09T19:25:27;10.60;99.90
11093;DHT22;5600;50.864;6.102;2023-04-09T19:34:30;10.50;99.90
11093;DHT22;5600;50.864;6.102;2023-04-09T19:37:31;10.40;99.90
11093;DHT22;5600;50.864;6.102;2023-04-09T19:40:32;10.40;99.90
11093;DHT22;5600;50.864;6.102;2023-04-09T19:49:35;10.20;99.90
11093;DHT22;5600;50.864;6.102;2023-04-09T19:55:38;10.00;99.90
11093;DHT22;5600;50.864;6.102;2023-04-09T19:58:41;9.90;99.90
11093;DHT22;5600;50.864;6.102;2023-04-09T20:10:45;9.40;99.90
11093;DHT22;5600;50.864;6.102;2023-04-09T20:25:54;8.70;99.90
11093;DHT22;5600;50.864;6.102;2023-04-09T20:28:54;8.60;99.90
11093;DHT22;5600;50.864;6.102;2023-04-09T20:56:06;8.00;99.90
11093;DHT22;5600;50.864;6.102;2023-04-09T21:02:11;7.90;99.90
11093;DHT22;5600;50.864;6.102;2023-04-09T21:14:15;7.60;99.90
11093;DHT22;5600;50.864;6.102;2023-04-09T21:20:18;7.50;99.90
11093;DHT22;5600;50.864;6.102;2023-04-09T21:44:27;8.30;99.90
11093;DHT22;5600;50.864;6.102;2023-04-09T21:50:30;8.90;99.90
11093;DHT22;5600;50.864;6.102;2023-04-09T21:53:32;9.10;99.90
11093;DHT22;5600;50.864;6.102;2023-04-09T21:59:34;9.30;99.90
11093;DHT22;5600;50.864;6.102;2023-04-09T22:02:37;9.30;99.90
11093;DHT22;5600;50.864;6.102;2023-04-09T22:08:40;9.50;99.90
11093;DHT22;5600;50.864;6.102;2023-04-09T22:23:46;9.60;99.90
11093;DHT22;5600;50.864;6.102;2023-04-09T22:32:49;9.70;99.90
11093;DHT22;5600;50.864;6.102;2023-04-09T22:44:54;9.80;99.90
11093;DHT22;5600;50.864;6.102;2023-04-09T22:56:59;9.70;99.90
11093;DHT22;5600;50.864;6.102;2023-04-09T23:09:06;9.50;99.90
11093;DHT22;5600;50.864;6.102;2023-04-09T23:39:18;9.20;99.90
11093;DHT22;5600;50.864;6.102;2023-04-09T23:42:19;9.10;99.90
11093;DHT22;5600;50.864;6.102;2023-04-09T23:54:26;9.20;99.90
11093;DHT22;5600;50.864;6.102;2023-04-09T23:57:26;9.10;99.90
